Time;durP1;ratioP1;P1;durP2;ratioP2;P2;SDS_P1;SDS_P2;PMS_P1;PMS_P2;Temp;Humidity;BMP_temperature;BMP_pressure;BME280_temperature;BME280_humidity;BME280_pressure;Samples;Min_cycle;Max_cycle;Signal;HPM_P1;HPM_P2
2022/12/20 00:01:14;;;;;;;39.10;22.97;;;2.80;1.00;;;;;;4996176;28;20889;-55
2022/12/20 00:03:40;;;;;;;47.43;24.73;;;2.80;1.00;;;;;;4995959;28;20463;-55
2022/12/20 00:06:06;;;;;;;38.80;22.40;;;2.80;1.00;;;;;;4978064;28;20523;-54
2022/12/20 00:08:33;;;;;;;39.53;23.73;;;2.80;1.00;;;;;;4995715;28;20582;-55
2022/12/20 00:11:01;;;;;;;42.13;22.03;;;2.70;1.00;;;;;;4995898;28;20994;-56
2022/12/20 00:13:27;;;;;;;35.87;22.20;;;2.70;1.00;;;;;;4995757;28;20447;-55
2022/12/20 00:16:24;;;;;;;42.10;22.00;;;2.70;1.00;;;;;;4995817;28;20470;-56
2022/12/20 00:18:55;;;;;;;40.03;23.80;;;2.70;1.00;;;;;;4982170;28;20454;-54
2022/12/20 00:21:21;;;;;;;36.63;21.50;;;2.70;1.00;;;;;;4995307;28;20432;-54
2022/12/20 00:23:47;;;;;;;45.77;23.80;;;2.70;1.00;;;;;;4983224;28;20774;-54
2022/12/20 00:26:19;;;;;;;44.53;24.37;;;2.80;1.00;;;;;;4975863;28;20441;-54
2022/12/20 00:28:45;;;;;;;40.67;22.53;;;2.80;1.00;;;;;;4975867;28;20182;-53
2022/12/20 00:31:14;;;;;;;42.00;24.73;;;2.80;1.00;;;;;;4978666;28;20968;-54
2022/12/20 00:33:41;;;;;;;46.40;21.90;;;2.80;1.00;;;;;;4995398;28;20930;-54
2022/12/20 00:36:07;;;;;;;41.13;23.47;;;2.80;1.00;;;;;;4995199;28;20459;-57
2022/12/20 00:38:34;;;;;;;44.13;24.07;;;2.80;1.00;;;;;;4995054;28;20984;-54
2022/12/20 00:40:59;;;;;;;38.03;22.67;;;2.80;1.00;;;;;;4995010;28;20446;-55
2022/12/20 00:43:25;;;;;;;42.80;23.20;;;2.80;1.00;;;;;;5004462;28;20426;-55
2022/12/20 00:45:51;;;;;;;37.90;21.23;;;2.90;1.00;;;;;;5014488;28;20192;-53
2022/12/20 00:48:16;;;;;;;41.13;23.50;;;2.80;1.00;;;;;;5014281;28;20505;-54
2022/12/20 00:50:42;;;;;;;42.13;25.33;;;2.90;1.00;;;;;;5014914;28;20192;-56
2022/12/20 00:53:09;;;;;;;48.47;24.37;;;2.80;1.00;;;;;;5014593;28;20193;-54
2022/12/20 00:55:39;;;;;;;35.37;20.90;;;2.80;1.00;;;;;;5014820;28;20218;-55
2022/12/20 00:58:05;;;;;;;35.17;21.20;;;2.80;1.00;;;;;;5007800;28;20855;-54
2022/12/20 01:00:31;;;;;;;41.87;23.30;;;2.70;1.00;;;;;;4995373;28;20427;-56
2022/12/20 01:02:56;;;;;;;40.90;23.87;;;2.80;1.00;;;;;;4994859;28;20199;-55
2022/12/20 01:05:22;;;;;;;38.30;20.80;;;2.80;1.00;;;;;;4994394;28;20198;-55
2022/12/20 01:07:47;;;;;;;41.90;22.93;;;2.80;1.00;;;;;;4994353;28;20193;-54
2022/12/20 01:10:13;;;;;;;39.93;22.67;;;2.90;1.00;;;;;;4994874;28;20184;-54
2022/12/20 01:12:39;;;;;;;38.97;20.80;;;2.90;1.00;;;;;;4994444;28;20551;-55
2022/12/20 01:15:05;;;;;;;42.10;23.77;;;2.90;1.00;;;;;;4994778;28;20277;-55
2022/12/20 01:17:31;;;;;;;37.27;22.13;;;3.00;1.00;;;;;;4994617;28;20212;-54
2022/12/20 01:19:56;;;;;;;39.20;23.40;;;3.10;1.00;;;;;;4994403;28;20912;-54
2022/12/20 01:22:22;;;;;;;42.10;23.70;;;3.10;1.00;;;;;;5007320;28;20394;-54
2022/12/20 01:24:48;;;;;;;33.73;20.93;;;3.20;1.00;;;;;;5014224;28;20184;-55
2022/12/20 01:27:13;;;;;;;44.43;24.13;;;3.10;1.00;;;;;;4994310;28;20289;-56
2022/12/20 01:29:39;;;;;;;43.27;23.97;;;3.20;1.00;;;;;;4974978;28;20183;-54
2022/12/20 01:32:04;;;;;;;42.20;22.30;;;3.20;1.00;;;;;;4974660;28;20193;-54
2022/12/20 01:34:30;;;;;;;38.63;21.97;;;3.20;1.00;;;;;;4957944;28;20203;-55
2022/12/20 01:36:55;;;;;;;37.73;22.33;;;3.30;1.00;;;;;;4980847;28;20291;-55
2022/12/20 01:39:21;;;;;;;40.23;22.77;;;3.40;1.00;;;;;;4993730;28;20240;-54
2022/12/20 01:41:47;;;;;;;39.07;22.80;;;3.40;1.00;;;;;;4994039;28;20271;-55
2022/12/20 01:44:16;;;;;;;38.20;22.93;;;3.40;1.00;;;;;;4993954;28;20464;-53
2022/12/20 01:46:41;;;;;;;40.17;22.97;;;3.40;1.00;;;;;;4994000;28;21012;-56
2022/12/20 01:49:28;;;;;;;38.20;20.83;;;3.30;1.00;;;;;;4994322;28;20468;-55
2022/12/20 01:52:07;;;;;;;39.50;20.63;;;3.30;1.00;;;;;;4993932;28;20443;-56
2022/12/20 01:54:38;;;;;;;39.77;23.03;;;3.30;1.00;;;;;;4994284;28;20435;-55
2022/12/20 01:57:18;;;;;;;42.53;22.80;;;3.30;1.00;;;;;;4993864;28;20538;-55
2022/12/20 01:59:47;;;;;;;44.30;22.33;;;3.30;1.00;;;;;;4993861;28;20953;-55
2022/12/20 02:02:13;;;;;;;44.33;23.00;;;3.30;1.00;;;;;;4993839;28;20934;-57
2022/12/20 02:04:39;;;;;;;34.90;21.87;;;3.30;1.00;;;;;;4993918;28;20434;-55
2022/12/20 02:07:07;;;;;;;39.07;22.30;;;3.30;1.00;;;;;;4993805;28;20445;-56
2022/12/20 02:09:35;;;;;;;43.90;23.20;;;3.40;1.00;;;;;;4993668;28;20192;-55
2022/12/20 02:12:19;;;;;;;37.33;20.43;;;3.40;1.00;;;;;;5011285;28;20495;-56
2022/12/20 02:15:18;;;;;;;40.23;22.40;;;3.50;1.00;;;;;;5013376;28;20442;-55
2022/12/20 02:18:08;;;;;;;37.13;20.70;;;3.50;1.00;;;;;;5003887;28;20459;-56
2022/12/20 02:20:50;;;;;;;43.10;23.80;;;3.50;1.00;;;;;;4985449;28;20443;-54
2022/12/20 02:23:35;;;;;;;38.93;24.87;;;3.50;1.00;;;;;;4981950;28;20944;-55
2022/12/20 02:26:29;;;;;;;39.50;22.00;;;3.60;1.00;;;;;;4985851;28;20452;-54
2022/12/20 02:29:21;;;;;;;36.03;23.10;;;3.60;1.00;;;;;;4997190;28;20446;-55
2022/12/20 02:32:18;;;;;;;40.83;22.80;;;3.60;1.00;;;;;;4988176;28;20496;-56
2022/12/20 02:34:44;;;;;;;38.47;21.60;;;3.60;1.00;;;;;;4982303;28;21044;-56
2022/12/20 02:37:10;;;;;;;36.77;21.30;;;3.50;1.00;;;;;;4985660;28;20476;-55
2022/12/20 02:39:39;;;;;;;41.13;22.60;;;3.50;1.00;;;;;;4983927;28;20993;-55
2022/12/20 02:42:18;;;;;;;44.50;24.87;;;3.50;1.00;;;;;;4988381;28;20185;-55
2022/12/20 02:47:39;;;;;;;38.80;21.00;;;3.60;1.00;;;;;;4989551;28;20452;-55
2022/12/20 02:50:07;;;;;;;42.10;24.20;;;3.50;1.00;;;;;;4982486;28;20474;-54
2022/12/20 02:52:33;;;;;;;41.77;22.90;;;3.50;1.00;;;;;;4987848;28;20447;-55
2022/12/20 02:55:00;;;;;;;41.20;22.50;;;3.50;1.00;;;;;;4986684;28;20962;-55
2022/12/20 02:57:41;;;;;;;41.70;22.30;;;3.40;1.00;;;;;;4989342;28;20566;-55
2022/12/20 03:00:14;;;;;;;40.30;22.53;;;3.40;1.00;;;;;;4986930;28;20447;-55
2022/12/20 03:05:27;;;;;;;39.10;22.43;;;3.40;1.00;;;;;;4984676;28;20996;-55
2022/12/20 03:07:54;;;;;;;37.57;20.20;;;3.40;1.00;;;;;;4986988;28;20449;-55
2022/12/20 03:10:20;;;;;;;36.30;22.33;;;3.40;1.00;;;;;;4986567;28;20455;-55
2022/12/20 03:12:46;;;;;;;35.87;21.73;;;3.40;1.00;;;;;;4983720;28;20448;-54
2022/12/20 03:15:12;;;;;;;38.47;22.40;;;3.40;1.00;;;;;;4980756;28;21023;-54
2022/12/20 03:17:38;;;;;;;38.33;22.27;;;3.50;1.00;;;;;;4988717;28;20192;-54
2022/12/20 03:20:05;;;;;;;39.60;21.20;;;3.40;1.00;;;;;;4986030;28;20439;-55
2022/12/20 03:22:32;;;;;;;38.87;22.70;;;3.40;1.00;;;;;;4968099;28;20246;-55
2022/12/20 03:24:58;;;;;;;41.33;22.30;;;3.40;1.00;;;;;;4982667;28;20463;-54
2022/12/20 03:27:26;;;;;;;37.30;23.10;;;3.50;1.00;;;;;;4985237;28;20427;-55
2022/12/20 03:29:51;;;;;;;33.73;21.63;;;3.50;1.00;;;;;;4985726;28;20464;-55
2022/12/20 03:32:17;;;;;;;38.03;22.60;;;3.50;1.00;;;;;;4986094;28;20479;-55
2022/12/20 03:34:43;;;;;;;40.13;23.90;;;3.50;1.00;;;;;;4989736;28;20264;-55
2022/12/20 03:37:09;;;;;;;37.03;20.43;;;3.60;1.00;;;;;;4983641;28;20689;-54
2022/12/20 03:39:34;;;;;;;43.13;23.33;;;3.60;1.00;;;;;;4991921;28;20657;-56
2022/12/20 03:42:00;;;;;;;33.17;20.40;;;3.60;1.00;;;;;;4988457;28;20193;-55
2022/12/20 03:44:25;;;;;;;41.60;23.07;;;3.60;1.00;;;;;;4990245;28;20192;-55
2022/12/20 03:46:51;;;;;;;35.37;20.60;;;3.70;1.00;;;;;;4992017;28;20196;-54
2022/12/20 03:49:17;;;;;;;36.20;21.90;;;3.70;1.00;;;;;;4988905;28;20721;-55
2022/12/20 03:51:43;;;;;;;38.10;21.93;;;3.80;1.00;;;;;;4990281;28;20196;-55
2022/12/20 03:54:08;;;;;;;44.17;23.93;;;3.80;1.00;;;;;;4990824;28;20617;-55
2022/12/20 03:56:34;;;;;;;35.73;22.77;;;3.60;1.00;;;;;;4988674;28;20314;-54
2022/12/20 03:59:00;;;;;;;41.30;22.33;;;3.60;1.00;;;;;;4979999;28;20180;-55
2022/12/20 04:01:27;;;;;;;34.90;21.13;;;3.70;1.00;;;;;;4989422;28;20185;-55
2022/12/20 04:03:53;;;;;;;40.03;21.07;;;3.70;1.00;;;;;;4987905;28;20193;-56
2022/12/20 04:06:20;;;;;;;41.07;22.93;;;3.70;1.00;;;;;;4989420;28;20419;-56
2022/12/20 04:08:46;;;;;;;37.17;21.40;;;3.70;1.00;;;;;;4988215;28;20554;-55
2022/12/20 04:11:15;;;;;;;39.03;24.23;;;3.60;1.00;;;;;;4989033;28;20452;-55
2022/12/20 04:13:41;;;;;;;37.00;22.07;;;3.60;1.00;;;;;;4986228;28;20450;-55
2022/12/20 04:16:07;;;;;;;38.80;22.10;;;3.60;1.00;;;;;;4975799;28;20469;-54
2022/12/20 04:18:33;;;;;;;45.37;23.27;;;3.10;1.00;;;;;;4987086;28;20538;-54
2022/12/20 04:21:03;;;;;;;35.13;22.63;;;3.70;1.00;;;;;;4986490;28;20184;-55
2022/12/20 04:23:29;;;;;;;35.97;22.80;;;3.70;1.00;;;;;;4990333;28;21490;-54
2022/12/20 04:25:54;;;;;;;40.00;21.97;;;3.80;1.00;;;;;;4985552;28;20459;-55
2022/12/20 04:28:20;;;;;;;39.37;21.70;;;3.80;1.00;;;;;;4990332;28;20192;-55
2022/12/20 04:30:46;;;;;;;39.47;21.10;;;3.80;1.00;;;;;;4983294;28;20519;-54
2022/12/20 04:33:11;;;;;;;39.63;21.70;;;3.80;1.00;;;;;;4991901;28;20440;-54
2022/12/20 04:35:37;;;;;;;38.20;21.80;;;3.70;1.00;;;;;;4980823;28;20612;-55
2022/12/20 04:38:03;;;;;;;37.30;21.57;;;3.70;1.00;;;;;;4975547;28;20216;-55
2022/12/20 04:40:29;;;;;;;39.90;22.00;;;3.70;1.00;;;;;;4983833;28;20212;-55
2022/12/20 04:42:55;;;;;;;46.23;22.10;;;3.70;1.00;;;;;;4984266;28;20447;-56
2022/12/20 04:45:21;;;;;;;39.30;23.03;;;3.70;1.00;;;;;;4986312;28;20185;-54
2022/12/20 04:47:46;;;;;;;33.40;21.37;;;3.80;1.00;;;;;;4987748;28;21134;-54
2022/12/20 04:50:12;;;;;;;39.40;22.97;;;3.80;1.00;;;;;;4984934;28;20219;-55
2022/12/20 04:55:22;;;;;;;38.40;20.43;;;3.60;1.00;;;;;;4988125;28;20482;-55
2022/12/20 04:57:47;;;;;;;38.33;20.67;;;3.70;1.00;;;;;;4987545;28;21108;-57
2022/12/20 05:00:14;;;;;;;41.10;21.53;;;3.70;1.00;;;;;;4988096;28;20184;-54
2022/12/20 05:02:40;;;;;;;32.57;21.50;;;3.70;1.00;;;;;;4988008;28;20204;-53
2022/12/20 05:05:06;;;;;;;39.93;22.63;;;3.90;1.00;;;;;;4983117;28;20509;-53
2022/12/20 05:07:31;;;;;;;42.13;21.50;;;3.80;1.00;;;;;;4987161;28;20460;-52
2022/12/20 05:09:57;;;;;;;37.43;22.60;;;3.80;1.00;;;;;;4987902;28;20445;-52
2022/12/20 05:12:23;;;;;;;43.17;24.47;;;4.00;1.00;;;;;;4988771;28;20195;-53
2022/12/20 05:14:48;;;;;;;33.00;20.67;;;4.00;1.00;;;;;;4986597;28;20192;-54
2022/12/20 05:17:14;;;;;;;34.30;21.40;;;4.00;1.00;;;;;;4988898;28;20209;-55
2022/12/20 05:19:39;;;;;;;35.77;22.33;;;3.90;1.00;;;;;;4988178;28;20679;-54
2022/12/20 05:27:33;;;;;;;37.00;21.17;;;3.90;1.00;;;;;;4986568;28;20459;-56
2022/12/20 05:29:59;;;;;;;35.77;21.03;;;4.00;1.00;;;;;;4987022;28;20459;-54
2022/12/20 05:32:24;;;;;;;34.13;20.43;;;4.00;1.00;;;;;;4989074;28;20208;-54
2022/12/20 05:34:50;;;;;;;36.13;22.50;;;4.00;1.00;;;;;;4978409;28;20205;-54
2022/12/20 05:37:16;;;;;;;35.53;19.20;;;3.90;1.00;;;;;;4979399;28;20217;-54
2022/12/20 05:39:41;;;;;;;34.37;19.60;;;4.00;1.00;;;;;;4984007;28;20199;-56
2022/12/20 05:42:07;;;;;;;32.70;19.20;;;3.90;1.00;;;;;;4998040;28;20273;-55
2022/12/20 05:44:32;;;;;;;36.13;20.43;;;3.90;1.00;;;;;;4983464;28;20630;-54
2022/12/20 05:46:59;;;;;;;36.03;20.27;;;3.90;1.00;;;;;;5003402;28;20724;-55
2022/12/20 05:49:24;;;;;;;32.10;19.67;;;3.90;1.00;;;;;;5005333;28;20250;-56
2022/12/20 05:51:50;;;;;;;33.00;19.57;;;3.90;1.00;;;;;;4989053;28;20444;-55
2022/12/20 05:54:15;;;;;;;33.60;19.90;;;3.90;1.00;;;;;;4982240;28;20192;-55
2022/12/20 05:56:41;;;;;;;34.60;19.70;;;3.90;1.00;;;;;;4987578;28;20208;-54
2022/12/20 05:59:08;;;;;;;28.87;19.10;;;3.90;1.00;;;;;;4988125;28;20223;-55
2022/12/20 06:01:34;;;;;;;33.13;19.53;;;4.00;1.00;;;;;;4985558;28;20181;-54
2022/12/20 06:03:59;;;;;;;32.73;18.93;;;4.00;1.00;;;;;;4987839;28;20473;-54
2022/12/20 06:06:25;;;;;;;29.67;18.70;;;4.00;1.00;;;;;;4989891;28;20192;-55
2022/12/20 06:08:51;;;;;;;29.10;18.00;;;4.00;1.00;;;;;;4990708;28;20195;-55
2022/12/20 06:11:16;;;;;;;28.77;19.63;;;4.00;1.00;;;;;;4986848;28;20242;-55
2022/12/20 06:13:42;;;;;;;29.03;18.20;;;4.00;1.00;;;;;;4984848;28;20192;-55
2022/12/20 06:16:07;;;;;;;30.27;18.27;;;4.00;1.00;;;;;;4988846;28;20208;-55
2022/12/20 06:18:33;;;;;;;34.00;20.40;;;4.00;1.00;;;;;;4978628;28;20243;-54
2022/12/20 06:20:58;;;;;;;33.10;17.40;;;4.00;1.00;;;;;;4990373;28;20193;-55
2022/12/20 06:23:24;;;;;;;29.50;19.30;;;4.00;1.00;;;;;;4986872;28;20200;-54
2022/12/20 06:25:50;;;;;;;35.37;20.80;;;4.00;1.00;;;;;;4968037;28;20232;-54
2022/12/20 06:28:20;;;;;;;39.20;21.23;;;4.00;1.00;;;;;;4996158;28;20188;-55
2022/12/20 06:30:55;;;;;;;34.33;19.57;;;4.00;1.00;;;;;;4991059;28;20520;-55
2022/12/20 06:33:20;;;;;;;32.90;19.07;;;4.10;1.00;;;;;;4986701;28;20459;-55
2022/12/20 06:35:48;;;;;;;31.80;18.33;;;4.10;1.00;;;;;;4985854;28;20978;-54
2022/12/20 06:38:13;;;;;;;31.63;19.50;;;4.00;1.00;;;;;;4985497;28;20204;-55
2022/12/20 06:40:39;;;;;;;34.80;19.70;;;4.00;1.00;;;;;;4985707;28;20443;-54
2022/12/20 06:43:04;;;;;;;29.43;19.20;;;4.10;1.00;;;;;;4988419;28;20189;-56
2022/12/20 06:45:30;;;;;;;30.87;17.67;;;4.00;1.00;;;;;;4987550;28;20666;-55
2022/12/20 06:47:56;;;;;;;35.33;20.33;;;4.00;1.00;;;;;;5000037;28;20267;-55
2022/12/20 06:50:22;;;;;;;32.23;18.73;;;4.00;1.00;;;;;;5003649;28;20213;-55
2022/12/20 06:52:48;;;;;;;34.57;18.87;;;4.10;1.00;;;;;;4987163;28;20547;-55
2022/12/20 06:55:13;;;;;;;31.70;19.37;;;4.10;1.00;;;;;;4986288;28;20447;-55
2022/12/20 06:57:39;;;;;;;34.60;19.57;;;4.00;1.00;;;;;;4986845;28;20304;-54
2022/12/20 07:00:07;;;;;;;31.57;20.27;;;4.00;1.00;;;;;;4991237;28;20208;-54
2022/12/20 07:02:33;;;;;;;27.77;17.87;;;4.00;1.00;;;;;;4985045;28;20449;-55
2022/12/20 07:04:59;;;;;;;33.37;20.43;;;4.10;1.00;;;;;;4989739;28;20798;-55
2022/12/20 07:07:24;;;;;;;33.80;19.97;;;4.00;1.00;;;;;;4973271;28;20526;-55
2022/12/20 07:09:50;;;;;;;37.93;20.00;;;4.00;1.00;;;;;;4989770;28;20205;-55
2022/12/20 07:12:16;;;;;;;32.17;20.90;;;3.90;1.00;;;;;;4992293;28;20296;-56
2022/12/20 07:14:42;;;;;;;36.03;21.10;;;4.00;1.00;;;;;;4991198;28;20222;-54
2022/12/20 07:17:07;;;;;;;36.73;20.33;;;4.00;1.00;;;;;;4987619;28;20468;-54
2022/12/20 07:19:35;;;;;;;36.23;19.43;;;4.00;1.00;;;;;;4990768;28;20631;-54
2022/12/20 07:22:01;;;;;;;33.60;19.70;;;4.00;1.00;;;;;;4990155;28;20576;-53
2022/12/20 07:24:26;;;;;;;34.80;20.20;;;4.00;1.00;;;;;;4988212;28;20881;-54
2022/12/20 07:26:52;;;;;;;27.70;18.73;;;4.00;1.00;;;;;;4973507;28;20448;-55
2022/12/20 07:29:17;;;;;;;31.77;17.70;;;3.90;1.00;;;;;;4990167;28;20196;-55
2022/12/20 07:31:43;;;;;;;37.90;21.40;;;3.90;1.00;;;;;;4992053;28;20200;-55
2022/12/20 07:34:10;;;;;;;32.47;20.07;;;4.00;1.00;;;;;;4987546;28;20207;-55
2022/12/20 07:36:35;;;;;;;34.93;21.17;;;4.00;1.00;;;;;;4985183;28;20224;-55
2022/12/20 07:39:01;;;;;;;36.57;20.87;;;4.00;1.00;;;;;;4992082;28;20510;-56
2022/12/20 07:41:26;;;;;;;34.17;20.10;;;4.00;1.00;;;;;;4992873;28;20185;-56
2022/12/20 07:43:52;;;;;;;38.10;20.77;;;3.90;1.00;;;;;;4990731;28;20188;-56
2022/12/20 07:46:18;;;;;;;35.43;20.33;;;4.00;1.00;;;;;;4990857;28;20528;-55
2022/12/20 07:48:43;;;;;;;35.00;21.47;;;4.00;1.00;;;;;;4992365;28;20235;-55
2022/12/20 07:51:13;;;;;;;34.00;20.70;;;4.10;1.00;;;;;;4999465;28;20692;-54
2022/12/20 07:53:44;;;;;;;33.17;20.40;;;4.10;1.00;;;;;;4992075;28;20193;-54
2022/12/20 07:56:11;;;;;;;33.30;20.27;;;4.10;1.00;;;;;;4988480;28;20499;-54
2022/12/20 07:58:39;;;;;;;36.77;20.30;;;4.00;1.00;;;;;;4990182;28;20448;-54
2022/12/20 08:01:06;;;;;;;36.03;23.13;;;4.20;1.00;;;;;;5000224;28;20548;-55
2022/12/20 08:03:38;;;;;;;36.80;22.10;;;4.10;1.00;;;;;;4990364;28;20463;-54
2022/12/20 08:06:06;;;;;;;38.53;24.20;;;4.20;1.00;;;;;;4987578;28;20447;-54
2022/12/20 08:08:34;;;;;;;39.00;22.43;;;4.10;1.00;;;;;;4985546;28;20781;-55
2022/12/20 08:11:02;;;;;;;36.93;20.20;;;4.10;1.00;;;;;;5001352;28;20534;-56
2022/12/20 08:13:28;;;;;;;35.00;21.87;;;4.10;1.00;;;;;;4989585;28;20464;-54
2022/12/20 08:15:54;;;;;;;35.00;20.70;;;4.10;1.00;;;;;;4991814;28;20474;-54
2022/12/20 08:18:19;;;;;;;33.80;21.00;;;4.20;1.00;;;;;;4996972;28;20193;-55
2022/12/20 08:20:45;;;;;;;37.17;22.03;;;4.20;1.00;;;;;;4988410;28;20193;-53
2022/12/20 08:23:10;;;;;;;39.83;22.77;;;4.20;1.00;;;;;;4996124;28;20259;-54
2022/12/20 08:25:36;;;;;;;39.83;23.90;;;4.30;1.00;;;;;;4990615;28;20200;-54
2022/12/20 08:28:02;;;;;;;38.10;22.73;;;4.30;1.00;;;;;;5007797;28;20184;-55
2022/12/20 08:30:28;;;;;;;35.87;22.50;;;4.30;1.00;;;;;;4995565;28;20513;-55
2022/12/20 08:32:54;;;;;;;39.80;23.20;;;4.20;1.00;;;;;;4993759;28;20538;-55
2022/12/20 08:35:21;;;;;;;42.20;23.73;;;4.30;1.00;;;;;;4988346;28;20460;-55
2022/12/20 08:37:47;;;;;;;38.27;20.63;;;4.20;1.00;;;;;;4995618;28;20475;-56
2022/12/20 08:40:13;;;;;;;37.43;20.93;;;4.30;1.00;;;;;;4991532;28;20493;-55
2022/12/20 08:42:39;;;;;;;38.33;22.10;;;4.30;1.00;;;;;;4991467;28;20559;-55
2022/12/20 08:45:05;;;;;;;36.07;22.47;;;4.20;1.00;;;;;;4988399;28;20442;-54
2022/12/20 08:47:30;;;;;;;38.87;22.53;;;4.20;1.00;;;;;;4990433;28;20196;-55
2022/12/20 08:49:56;;;;;;;39.40;23.13;;;4.00;1.00;;;;;;4994413;28;20458;-54
2022/12/20 08:52:21;;;;;;;35.50;22.17;;;4.10;1.00;;;;;;5004440;28;20199;-55
2022/12/20 08:54:47;;;;;;;41.50;23.00;;;4.00;1.00;;;;;;4995220;28;20191;-54
2022/12/20 08:57:13;;;;;;;41.30;22.83;;;4.00;1.00;;;;;;4992043;28;20217;-54
2022/12/20 08:59:38;;;;;;;40.23;23.93;;;4.00;1.00;;;;;;4994617;28;20208;-56
2022/12/20 09:02:05;;;;;;;36.80;20.67;;;4.00;1.00;;;;;;4997126;28;20195;-55
2022/12/20 09:04:31;;;;;;;39.10;23.83;;;4.00;1.00;;;;;;4990909;28;20192;-54
2022/12/20 09:06:56;;;;;;;40.03;22.40;;;4.00;1.00;;;;;;4997865;28;20430;-55
2022/12/20 09:09:22;;;;;;;39.77;20.80;;;4.10;1.00;;;;;;4985900;28;20240;-55
2022/12/20 09:11:48;;;;;;;42.33;24.00;;;4.20;1.00;;;;;;4989924;28;20258;-54
2022/12/20 09:14:13;;;;;;;36.60;21.73;;;4.20;1.00;;;;;;4997828;28;20206;-53
2022/12/20 09:16:39;;;;;;;37.30;21.97;;;4.30;1.00;;;;;;4993176;28;20239;-54
2022/12/20 09:19:04;;;;;;;37.60;20.67;;;4.40;1.00;;;;;;4992083;28;20218;-55
2022/12/20 09:21:30;;;;;;;36.50;20.87;;;4.40;1.00;;;;;;4992783;28;20277;-54
2022/12/20 09:23:56;;;;;;;40.00;22.93;;;4.40;1.00;;;;;;4988405;28;20216;-55
2022/12/20 09:26:23;;;;;;;37.77;23.37;;;4.50;1.00;;;;;;4990345;28;20427;-54
2022/12/20 09:28:49;;;;;;;37.07;21.03;;;4.50;1.00;;;;;;5006927;28;20409;-55
2022/12/20 09:31:20;;;;;;;44.37;24.63;;;4.50;1.00;;;;;;4989648;28;20481;-54
2022/12/20 09:33:46;;;;;;;34.10;20.53;;;4.60;1.00;;;;;;4989528;28;20452;-54
2022/12/20 09:36:19;;;;;;;37.10;22.00;;;4.70;1.00;;;;;;4992472;28;20530;-54
2022/12/20 09:38:45;;;;;;;39.67;23.23;;;4.70;1.00;;;;;;4988142;28;20455;-55
2022/12/20 09:41:26;;;;;;;38.73;23.80;;;4.80;1.00;;;;;;4974269;28;20554;-54
2022/12/20 09:43:52;;;;;;;40.53;23.60;;;4.90;1.00;;;;;;4985271;28;20445;-54
2022/12/20 09:46:17;;;;;;;41.57;24.10;;;4.90;1.00;;;;;;4993023;28;20961;-54
2022/12/20 09:48:45;;;;;;;38.73;22.17;;;4.90;1.00;;;;;;4996432;28;20239;-54
2022/12/20 09:51:44;;;;;;;43.23;22.93;;;5.00;1.00;;;;;;4990659;28;20690;-54
2022/12/20 09:54:19;;;;;;;37.40;21.70;;;5.00;1.00;;;;;;4989646;28;20783;-55
2022/12/20 09:57:13;;;;;;;38.67;22.50;;;5.00;1.00;;;;;;4990339;28;20500;-54
2022/12/20 09:59:41;;;;;;;40.57;23.03;;;5.10;1.00;;;;;;4995130;28;20416;-56
2022/12/20 10:02:14;;;;;;;42.60;22.67;;;5.20;1.00;;;;;;4990817;28;20466;-54
2022/12/20 10:04:39;;;;;;;39.27;22.47;;;5.30;1.00;;;;;;4993630;28;20427;-55
2022/12/20 10:07:23;;;;;;;40.83;23.20;;;5.40;1.00;;;;;;4989551;28;20445;-55
2022/12/20 10:10:23;;;;;;;45.67;24.83;;;5.40;1.00;;;;;;4991848;28;20184;-54
2022/12/20 10:13:11;;;;;;;36.30;20.83;;;5.40;1.00;;;;;;4989074;28;20449;-53
2022/12/20 10:15:53;;;;;;;35.40;21.60;;;5.40;1.00;;;;;;4986664;28;20510;-55
2022/12/20 10:18:56;;;;;;;36.70;21.63;;;5.30;1.00;;;;;;5002592;28;20468;-55
2022/12/20 10:21:37;;;;;;;41.57;22.53;;;5.20;1.00;;;;;;4992587;28;20443;-54
2022/12/20 10:24:10;;;;;;;44.47;22.67;;;5.20;1.00;;;;;;4995942;28;20418;-55
2022/12/20 10:26:36;;;;;;;42.50;23.70;;;5.30;1.00;;;;;;4998539;28;20530;-55
2022/12/20 10:29:02;;;;;;;39.57;20.63;;;5.20;1.00;;;;;;4979455;28;20460;-55
2022/12/20 10:31:27;;;;;;;39.17;22.53;;;5.00;1.00;;;;;;4991359;28;20214;-54
2022/12/20 10:33:53;;;;;;;37.77;22.80;;;4.90;1.00;;;;;;4997970;28;20672;-55
2022/12/20 10:36:25;;;;;;;36.07;21.10;;;5.00;1.00;;;;;;4994758;28;20278;-55
2022/12/20 10:38:53;;;;;;;39.63;22.50;;;4.90;1.00;;;;;;5000274;28;20186;-55
2022/12/20 10:41:25;;;;;;;38.13;23.23;;;5.00;1.00;;;;;;4995387;28;20450;-55
2022/12/20 10:44:15;;;;;;;36.67;22.23;;;5.00;1.00;;;;;;4992942;28;20519;-54
2022/12/20 10:46:47;;;;;;;34.73;21.90;;;5.00;1.00;;;;;;4989428;28;20426;-56
2022/12/20 10:49:28;;;;;;;42.97;26.57;;;4.90;1.00;;;;;;5002507;28;21238;-58
2022/12/20 10:51:56;;;;;;;39.03;22.77;;;5.00;1.00;;;;;;4990517;28;20978;-58
2022/12/20 10:54:41;;;;;;;35.43;22.87;;;5.00;1.00;;;;;;4988362;28;20951;-56
2022/12/20 10:57:32;;;;;;;37.40;23.00;;;5.00;1.00;;;;;;4990608;28;20482;-58
2022/12/20 11:00:04;;;;;;;38.27;21.60;;;5.10;1.00;;;;;;4991534;28;20844;-58
2022/12/20 11:02:39;;;;;;;35.53;22.97;;;5.10;1.00;;;;;;4991197;28;20426;-58
2022/12/20 11:05:10;;;;;;;37.77;22.80;;;5.10;1.00;;;;;;5006528;28;20537;-57
2022/12/20 11:07:38;;;;;;;39.07;23.63;;;5.00;1.00;;;;;;4990330;28;20459;-57
2022/12/20 11:10:22;;;;;;;37.57;22.63;;;5.00;1.00;;;;;;4992768;28;20449;-57
2022/12/20 11:12:54;;;;;;;41.37;23.03;;;4.90;1.00;;;;;;4992912;28;20974;-57
2022/12/20 11:15:25;;;;;;;31.07;20.17;;;4.90;1.00;;;;;;4991185;28;20455;-57
2022/12/20 11:17:57;;;;;;;37.60;20.63;;;4.90;1.00;;;;;;4989538;28;20475;-57
2022/12/20 11:20:43;;;;;;;46.57;23.93;;;4.90;1.00;;;;;;4991122;28;20826;-57
2022/12/20 11:23:34;;;;;;;42.53;24.23;;;4.90;1.00;;;;;;4995729;28;20447;-58
2022/12/20 11:26:11;;;;;;;38.57;23.47;;;4.90;1.00;;;;;;4989726;28;20531;-57
2022/12/20 11:28:49;;;;;;;38.37;23.43;;;5.10;1.00;;;;;;4995981;28;20932;-57
2022/12/20 11:31:50;;;;;;;40.10;23.80;;;5.20;1.00;;;;;;4990204;28;20451;-58
2022/12/20 11:34:34;;;;;;;37.80;21.67;;;5.30;1.00;;;;;;4992213;28;20450;-57
2022/12/20 11:37:23;;;;;;;39.10;22.23;;;5.40;1.00;;;;;;4988306;28;20527;-57
2022/12/20 11:40:31;;;;;;;38.13;23.47;;;5.40;1.00;;;;;;4999432;28;20486;-57
2022/12/20 11:43:19;;;;;;;39.63;22.73;;;5.40;1.00;;;;;;4982123;28;20459;-57
2022/12/20 11:46:05;;;;;;;36.63;21.70;;;5.30;1.00;;;;;;4990280;28;20451;-57
2022/12/20 11:48:52;;;;;;;40.70;23.73;;;5.20;1.00;;;;;;4988348;28;20483;-58
2022/12/20 11:51:34;;;;;;;40.20;22.80;;;5.10;1.00;;;;;;4984254;28;20484;-58
2022/12/20 11:54:08;;;;;;;34.50;22.30;;;5.10;1.00;;;;;;4984009;28;20441;-56
2022/12/20 11:56:37;;;;;;;38.90;21.73;;;5.00;1.00;;;;;;4991179;28;20486;-57
2022/12/20 11:59:21;;;;;;;40.37;23.90;;;6.80;1.00;;;;;;4997036;28;20505;-56
2022/12/20 12:02:15;;;;;;;42.40;24.50;;;5.10;1.00;;;;;;4991759;28;20966;-57
2022/12/20 12:05:23;;;;;;;42.80;24.07;;;5.20;1.00;;;;;;4992483;28;20440;-57
2022/12/20 12:07:54;;;;;;;39.63;22.10;;;5.30;1.00;;;;;;4951240;28;20452;-58
2022/12/20 12:10:34;;;;;;;42.90;24.90;;;5.30;1.00;;;;;;5003416;28;20483;-56
2022/12/20 12:13:19;;;;;;;41.47;23.30;;;5.40;1.00;;;;;;5011469;28;20869;-56
2022/12/20 12:16:10;;;;;;;35.57;21.97;;;5.50;1.00;;;;;;4992737;28;20452;-56
2022/12/20 12:18:37;;;;;;;40.77;22.83;;;5.40;1.00;;;;;;5011644;28;20431;-57
2022/12/20 12:21:07;;;;;;;40.60;22.40;;;5.30;1.00;;;;;;5007392;28;20436;-57
2022/12/20 12:23:54;;;;;;;36.77;23.13;;;5.30;1.00;;;;;;4991999;28;21005;-58
2022/12/20 12:26:27;;;;;;;39.60;23.47;;;5.20;1.00;;;;;;4991607;28;20888;-57
2022/12/20 12:28:59;;;;;;;44.40;25.40;;;5.00;1.00;;;;;;4990270;28;20419;-56
2022/12/20 12:31:41;;;;;;;45.57;26.10;;;4.90;1.00;;;;;;4989717;28;20539;-58
2022/12/20 12:34:18;;;;;;;40.93;22.30;;;4.90;1.00;;;;;;5003616;28;20444;-57
2022/12/20 12:37:14;;;;;;;38.77;22.00;;;4.90;1.00;;;;;;4982849;28;20476;-57
2022/12/20 12:40:06;;;;;;;38.80;23.13;;;4.90;1.00;;;;;;4985743;28;20539;-57
2022/12/20 12:42:52;;;;;;;40.37;23.30;;;4.90;1.00;;;;;;4984354;28;20489;-57
2022/12/20 12:45:41;;;;;;;41.30;22.93;;;4.80;1.00;;;;;;4987827;28;20530;-58
2022/12/20 12:48:13;;;;;;;45.67;26.83;;;4.80;1.00;;;;;;4991416;28;20460;-57
2022/12/20 12:50:45;;;;;;;40.37;23.93;;;4.80;1.00;;;;;;4991385;28;20527;-58
2022/12/20 12:53:20;;;;;;;38.70;23.50;;;4.80;1.00;;;;;;4988758;28;20448;-57
2022/12/20 12:55:51;;;;;;;42.80;22.87;;;4.70;1.00;;;;;;4987046;28;20488;-58
2022/12/20 12:58:23;;;;;;;44.37;23.90;;;4.70;1.00;;;;;;4985613;28;20452;-57
2022/12/20 13:00:57;;;;;;;43.17;22.60;;;4.80;1.00;;;;;;4982616;28;20444;-57
2022/12/20 13:03:38;;;;;;;46.07;24.80;;;4.80;1.00;;;;;;4985330;28;20462;-57
2022/12/20 13:06:22;;;;;;;40.40;22.90;;;4.80;1.00;;;;;;4988499;28;21119;-57
2022/12/20 13:09:26;;;;;;;42.57;24.13;;;4.80;1.00;;;;;;4988018;28;20444;-58
2022/12/20 13:11:56;;;;;;;39.77;22.70;;;4.70;1.00;;;;;;4970570;28;20479;-57
2022/12/20 13:14:24;;;;;;;37.77;22.57;;;4.80;1.00;;;;;;4965063;28;20479;-57
2022/12/20 13:17:03;;;;;;;41.10;22.53;;;4.80;1.00;;;;;;4985359;28;20569;-56
2022/12/20 13:19:28;;;;;;;39.00;23.60;;;4.80;1.00;;;;;;4985222;28;20454;-57